sensor_id;sensor_type;location;lat;lon;timestamp;P1;durP1;ratioP1;P2;durP2;ratioP2
66485;SDS011;53303;47.476;8.084;2022-07-05T00:00:08;5.22;;;2.50;;
66485;SDS011;53303;47.476;8.084;2022-07-05T00:02:34;5.10;;;2.05;;
66485;SDS011;53303;47.476;8.084;2022-07-05T00:05:02;5.13;;;2.10;;
66485;SDS011;53303;47.476;8.084;2022-07-05T00:07:28;4.45;;;2.28;;
66485;SDS011;53303;47.476;8.084;2022-07-05T00:09:54;6.38;;;1.85;;
66485;SDS011;53303;47.476;8.084;2022-07-05T00:12:22;4.35;;;1.90;;
66485;SDS011;53303;47.476;8.084;2022-07-05T00:14:50;4.97;;;2.10;;
66485;SDS011;53303;47.476;8.084;2022-07-05T00:17:16;4.45;;;2.15;;
66485;SDS011;53303;47.476;8.084;2022-07-05T00:19:42;5.22;;;2.50;;
66485;SDS011;53303;47.476;8.084;2022-07-05T00:22:07;4.45;;;2.00;;
66485;SDS011;53303;47.476;8.084;2022-07-05T00:24:35;6.78;;;2.78;;
66485;SDS011;53303;47.476;8.084;2022-07-05T00:27:01;6.03;;;2.35;;
66485;SDS011;53303;47.476;8.084;2022-07-05T00:29:27;5.35;;;2.30;;
66485;SDS011;53303;47.476;8.084;2022-07-05T00:31:53;9.70;;;2.55;;
66485;SDS011;53303;47.476;8.084;2022-07-05T00:34:18;4.82;;;2.50;;
66485;SDS011;53303;47.476;8.084;2022-07-05T00:36:44;4.75;;;2.28;;
66485;SDS011;53303;47.476;8.084;2022-07-05T00:39:09;6.82;;;2.40;;
66485;SDS011;53303;47.476;8.084;2022-07-05T00:41:35;5.20;;;2.60;;
66485;SDS011;53303;47.476;8.084;2022-07-05T00:44:08;5.40;;;2.38;;
66485;SDS011;53303;47.476;8.084;2022-07-05T00:46:35;4.70;;;1.95;;
66485;SDS011;53303;47.476;8.084;2022-07-05T00:49:02;4.40;;;2.40;;
66485;SDS011;53303;47.476;8.084;2022-07-05T00:51:32;5.97;;;2.50;;
66485;SDS011;53303;47.476;8.084;2022-07-05T00:54:00;7.18;;;2.38;;
66485;SDS011;53303;47.476;8.084;2022-07-05T00:56:26;17.30;;;2.80;;
66485;SDS011;53303;47.476;8.084;2022-07-05T00:58:52;6.65;;;2.13;;
66485;SDS011;53303;47.476;8.084;2022-07-05T01:01:18;4.15;;;2.40;;
66485;SDS011;53303;47.476;8.084;2022-07-05T01:03:46;4.53;;;2.47;;
66485;SDS011;53303;47.476;8.084;2022-07-05T01:06:12;4.75;;;2.20;;
66485;SDS011;53303;47.476;8.084;2022-07-05T01:08:39;3.90;;;2.22;;
66485;SDS011;53303;47.476;8.084;2022-07-05T01:11:07;8.77;;;2.95;;
66485;SDS011;53303;47.476;8.084;2022-07-05T01:13:35;4.55;;;2.60;;
66485;SDS011;53303;47.476;8.084;2022-07-05T01:16:02;3.47;;;2.10;;
66485;SDS011;53303;47.476;8.084;2022-07-05T01:18:28;4.43;;;2.33;;
66485;SDS011;53303;47.476;8.084;2022-07-05T01:20:59;3.22;;;1.80;;
66485;SDS011;53303;47.476;8.084;2022-07-05T01:23:30;4.20;;;2.30;;
66485;SDS011;53303;47.476;8.084;2022-07-05T01:25:58;6.43;;;2.80;;
66485;SDS011;53303;47.476;8.084;2022-07-05T01:28:26;5.43;;;2.78;;
66485;SDS011;53303;47.476;8.084;2022-07-05T01:30:54;4.00;;;2.10;;
66485;SDS011;53303;47.476;8.084;2022-07-05T01:33:28;4.10;;;1.73;;
66485;SDS011;53303;47.476;8.084;2022-07-05T01:35:57;4.45;;;2.40;;
66485;SDS011;53303;47.476;8.084;2022-07-05T01:38:24;5.80;;;2.40;;
66485;SDS011;53303;47.476;8.084;2022-07-05T01:40:51;4.38;;;1.92;;
66485;SDS011;53303;47.476;8.084;2022-07-05T01:43:20;5.18;;;2.50;;
66485;SDS011;53303;47.476;8.084;2022-07-05T01:45:50;5.38;;;2.65;;
66485;SDS011;53303;47.476;8.084;2022-07-05T01:48:18;5.13;;;2.40;;
66485;SDS011;53303;47.476;8.084;2022-07-05T01:50:48;4.75;;;2.00;;
66485;SDS011;53303;47.476;8.084;2022-07-05T01:53:20;3.47;;;2.00;;
66485;SDS011;53303;47.476;8.084;2022-07-05T01:55:57;5.25;;;2.85;;
66485;SDS011;53303;47.476;8.084;2022-07-05T01:58:24;3.78;;;2.38;;
66485;SDS011;53303;47.476;8.084;2022-07-05T02:00:53;4.10;;;2.00;;
66485;SDS011;53303;47.476;8.084;2022-07-05T02:03:20;4.05;;;2.20;;
66485;SDS011;53303;47.476;8.084;2022-07-05T02:05:46;4.15;;;2.30;;
66485;SDS011;53303;47.476;8.084;2022-07-05T02:08:13;4.20;;;2.40;;
66485;SDS011;53303;47.476;8.084;2022-07-05T02:10:39;4.80;;;2.50;;
66485;SDS011;53303;47.476;8.084;2022-07-05T02:13:06;4.85;;;2.20;;
66485;SDS011;53303;47.476;8.084;2022-07-05T02:15:35;3.42;;;1.60;;
66485;SDS011;53303;47.476;8.084;2022-07-05T02:18:02;4.47;;;1.95;;
66485;SDS011;53303;47.476;8.084;2022-07-05T02:20:31;3.08;;;1.90;;
66485;SDS011;53303;47.476;8.084;2022-07-05T02:23:02;3.97;;;2.30;;
66485;SDS011;53303;47.476;8.084;2022-07-05T02:25:27;4.03;;;2.28;;
66485;SDS011;53303;47.476;8.084;2022-07-05T02:27:53;3.80;;;1.90;;
66485;SDS011;53303;47.476;8.084;2022-07-05T02:30:19;3.30;;;1.90;;
66485;SDS011;53303;47.476;8.084;2022-07-05T02:32:47;3.17;;;1.80;;
66485;SDS011;53303;47.476;8.084;2022-07-05T02:35:13;5.35;;;1.98;;
66485;SDS011;53303;47.476;8.084;2022-07-05T02:37:39;3.22;;;2.00;;
66485;SDS011;53303;47.476;8.084;2022-07-05T02:40:08;6.07;;;1.95;;
66485;SDS011;53303;47.476;8.084;2022-07-05T02:42:36;4.15;;;1.88;;
66485;SDS011;53303;47.476;8.084;2022-07-05T02:45:02;3.83;;;1.35;;
66485;SDS011;53303;47.476;8.084;2022-07-05T02:47:31;4.55;;;1.83;;
66485;SDS011;53303;47.476;8.084;2022-07-05T02:49:58;3.90;;;1.88;;
66485;SDS011;53303;47.476;8.084;2022-07-05T02:52:24;3.67;;;1.67;;
66485;SDS011;53303;47.476;8.084;2022-07-05T02:54:50;2.33;;;1.58;;
66485;SDS011;53303;47.476;8.084;2022-07-05T02:57:15;3.22;;;1.80;;
66485;SDS011;53303;47.476;8.084;2022-07-05T02:59:41;4.22;;;1.98;;
66485;SDS011;53303;47.476;8.084;2022-07-05T03:02:06;3.58;;;1.80;;
66485;SDS011;53303;47.476;8.084;2022-07-05T03:04:31;2.90;;;1.50;;
66485;SDS011;53303;47.476;8.084;2022-07-05T03:06:59;2.78;;;1.23;;
66485;SDS011;53303;47.476;8.084;2022-07-05T03:09:24;4.50;;;1.60;;
66485;SDS011;53303;47.476;8.084;2022-07-05T03:11:52;5.45;;;1.65;;
66485;SDS011;53303;47.476;8.084;2022-07-05T03:14:17;4.32;;;1.40;;
66485;SDS011;53303;47.476;8.084;2022-07-05T03:16:43;3.33;;;1.58;;
66485;SDS011;53303;47.476;8.084;2022-07-05T03:19:09;8.18;;;1.40;;
66485;SDS011;53303;47.476;8.084;2022-07-05T03:21:35;5.40;;;1.63;;
66485;SDS011;53303;47.476;8.084;2022-07-05T03:24:03;3.90;;;1.83;;
66485;SDS011;53303;47.476;8.084;2022-07-05T03:26:31;4.80;;;1.55;;
66485;SDS011;53303;47.476;8.084;2022-07-05T03:28:56;4.38;;;1.60;;
66485;SDS011;53303;47.476;8.084;2022-07-05T03:31:21;6.07;;;1.52;;
66485;SDS011;53303;47.476;8.084;2022-07-05T03:33:47;3.58;;;1.95;;
66485;SDS011;53303;47.476;8.084;2022-07-05T03:36:12;4.28;;;1.60;;
66485;SDS011;53303;47.476;8.084;2022-07-05T03:38:38;4.47;;;1.80;;
66485;SDS011;53303;47.476;8.084;2022-07-05T03:41:03;4.28;;;1.38;;
66485;SDS011;53303;47.476;8.084;2022-07-05T03:43:29;3.17;;;1.80;;
66485;SDS011;53303;47.476;8.084;2022-07-05T03:45:54;3.38;;;1.67;;
66485;SDS011;53303;47.476;8.084;2022-07-05T03:48:20;2.92;;;1.50;;
66485;SDS011;53303;47.476;8.084;2022-07-05T03:50:46;6.00;;;1.70;;
66485;SDS011;53303;47.476;8.084;2022-07-05T03:53:12;6.65;;;1.90;;
66485;SDS011;53303;47.476;8.084;2022-07-05T03:55:40;3.60;;;1.95;;
66485;SDS011;53303;47.476;8.084;2022-07-05T03:58:09;7.93;;;1.80;;
66485;SDS011;53303;47.476;8.084;2022-07-05T04:00:34;3.35;;;1.70;;
66485;SDS011;53303;47.476;8.084;2022-07-05T04:03:00;4.05;;;1.50;;
66485;SDS011;53303;47.476;8.084;2022-07-05T04:05:26;3.22;;;1.70;;
66485;SDS011;53303;47.476;8.084;2022-07-05T04:07:52;6.82;;;1.83;;
66485;SDS011;53303;47.476;8.084;2022-07-05T04:10:18;7.57;;;1.85;;
66485;SDS011;53303;47.476;8.084;2022-07-05T04:12:45;4.85;;;1.80;;
66485;SDS011;53303;47.476;8.084;2022-07-05T04:15:11;5.20;;;1.60;;
66485;SDS011;53303;47.476;8.084;2022-07-05T04:17:50;4.00;;;2.10;;
66485;SDS011;53303;47.476;8.084;2022-07-05T04:20:17;4.18;;;1.50;;
66485;SDS011;53303;47.476;8.084;2022-07-05T04:22:46;4.28;;;1.45;;
66485;SDS011;53303;47.476;8.084;2022-07-05T04:25:11;5.15;;;2.03;;
66485;SDS011;53303;47.476;8.084;2022-07-05T04:27:49;3.55;;;1.77;;
66485;SDS011;53303;47.476;8.084;2022-07-05T04:30:17;5.97;;;1.60;;
66485;SDS011;53303;47.476;8.084;2022-07-05T04:32:44;3.08;;;1.45;;
66485;SDS011;53303;47.476;8.084;2022-07-05T04:35:10;3.53;;;1.45;;
66485;SDS011;53303;47.476;8.084;2022-07-05T04:37:36;5.10;;;1.85;;
66485;SDS011;53303;47.476;8.084;2022-07-05T04:40:06;6.15;;;1.63;;
66485;SDS011;53303;47.476;8.084;2022-07-05T04:42:33;5.85;;;1.60;;
66485;SDS011;53303;47.476;8.084;2022-07-05T04:44:58;3.92;;;1.60;;
66485;SDS011;53303;47.476;8.084;2022-07-05T04:47:24;4.10;;;1.50;;
66485;SDS011;53303;47.476;8.084;2022-07-05T04:49:53;2.92;;;1.42;;
66485;SDS011;53303;47.476;8.084;2022-07-05T04:52:22;6.22;;;1.60;;
66485;SDS011;53303;47.476;8.084;2022-07-05T04:54:51;3.63;;;1.60;;
66485;SDS011;53303;47.476;8.084;2022-07-05T04:57:17;5.03;;;1.50;;
66485;SDS011;53303;47.476;8.084;2022-07-05T04:59:42;3.60;;;1.35;;
66485;SDS011;53303;47.476;8.084;2022-07-05T05:02:08;5.15;;;1.60;;
66485;SDS011;53303;47.476;8.084;2022-07-05T05:04:33;2.28;;;1.27;;
66485;SDS011;53303;47.476;8.084;2022-07-05T05:06:58;4.38;;;1.40;;
66485;SDS011;53303;47.476;8.084;2022-07-05T05:09:24;4.68;;;1.60;;
66485;SDS011;53303;47.476;8.084;2022-07-05T05:11:50;2.47;;;1.40;;
66485;SDS011;53303;47.476;8.084;2022-07-05T05:14:15;3.88;;;1.55;;
66485;SDS011;53303;47.476;8.084;2022-07-05T05:16:41;4.22;;;1.38;;
66485;SDS011;53303;47.476;8.084;2022-07-05T05:19:07;3.13;;;1.60;;
66485;SDS011;53303;47.476;8.084;2022-07-05T05:21:32;4.28;;;1.38;;
66485;SDS011;53303;47.476;8.084;2022-07-05T05:23:58;3.95;;;1.60;;
66485;SDS011;53303;47.476;8.084;2022-07-05T05:26:23;3.22;;;1.40;;
66485;SDS011;53303;47.476;8.084;2022-07-05T05:28:49;3.47;;;1.58;;
66485;SDS011;53303;47.476;8.084;2022-07-05T05:31:18;2.50;;;1.45;;
66485;SDS011;53303;47.476;8.084;2022-07-05T05:33:44;5.15;;;1.33;;
66485;SDS011;53303;47.476;8.084;2022-07-05T05:36:10;2.78;;;1.08;;
66485;SDS011;53303;47.476;8.084;2022-07-05T05:38:36;3.25;;;1.70;;
66485;SDS011;53303;47.476;8.084;2022-07-05T05:41:03;4.05;;;1.45;;
66485;SDS011;53303;47.476;8.084;2022-07-05T05:43:29;5.32;;;1.27;;
66485;SDS011;53303;47.476;8.084;2022-07-05T05:45:54;3.22;;;1.52;;
66485;SDS011;53303;47.476;8.084;2022-07-05T05:48:20;3.47;;;1.40;;
66485;SDS011;53303;47.476;8.084;2022-07-05T05:50:46;5.57;;;1.50;;
66485;SDS011;53303;47.476;8.084;2022-07-05T05:53:12;3.50;;;1.27;;
66485;SDS011;53303;47.476;8.084;2022-07-05T05:55:38;3.05;;;1.30;;
66485;SDS011;53303;47.476;8.084;2022-07-05T05:58:13;3.83;;;1.27;;
66485;SDS011;53303;47.476;8.084;2022-07-05T06:00:39;3.70;;;1.30;;
66485;SDS011;53303;47.476;8.084;2022-07-05T06:03:05;2.70;;;1.30;;
66485;SDS011;53303;47.476;8.084;2022-07-05T06:05:30;2.42;;;1.10;;
66485;SDS011;53303;47.476;8.084;2022-07-05T06:07:56;3.42;;;1.10;;
66485;SDS011;53303;47.476;8.084;2022-07-05T06:10:23;3.72;;;1.33;;
66485;SDS011;53303;47.476;8.084;2022-07-05T06:12:50;3.35;;;1.60;;
66485;SDS011;53303;47.476;8.084;2022-07-05T06:15:19;4.43;;;1.58;;
66485;SDS011;53303;47.476;8.084;2022-07-05T06:17:45;3.60;;;1.38;;
66485;SDS011;53303;47.476;8.084;2022-07-05T06:20:13;4.05;;;1.02;;
66485;SDS011;53303;47.476;8.084;2022-07-05T06:22:40;4.85;;;1.48;;
66485;SDS011;53303;47.476;8.084;2022-07-05T06:25:06;4.95;;;1.73;;
66485;SDS011;53303;47.476;8.084;2022-07-05T06:27:34;3.42;;;1.52;;
66485;SDS011;53303;47.476;8.084;2022-07-05T06:30:03;4.30;;;1.20;;
66485;SDS011;53303;47.476;8.084;2022-07-05T06:32:31;3.70;;;1.40;;
66485;SDS011;53303;47.476;8.084;2022-07-05T06:34:57;3.80;;;1.50;;
66485;SDS011;53303;47.476;8.084;2022-07-05T06:37:22;5.32;;;1.42;;
66485;SDS011;53303;47.476;8.084;2022-07-05T06:39:49;3.30;;;1.35;;
66485;SDS011;53303;47.476;8.084;2022-07-05T06:42:14;3.80;;;1.40;;
66485;SDS011;53303;47.476;8.084;2022-07-05T06:44:42;5.35;;;1.55;;
66485;SDS011;53303;47.476;8.084;2022-07-05T06:47:08;2.60;;;1.10;;
66485;SDS011;53303;47.476;8.084;2022-07-05T06:49:34;3.72;;;1.58;;
66485;SDS011;53303;47.476;8.084;2022-07-05T06:52:00;3.00;;;1.50;;
66485;SDS011;53303;47.476;8.084;2022-07-05T06:54:25;3.85;;;1.50;;
66485;SDS011;53303;47.476;8.084;2022-07-05T06:56:51;2.65;;;1.10;;
66485;SDS011;53303;47.476;8.084;2022-07-05T06:59:18;3.05;;;1.50;;
66485;SDS011;53303;47.476;8.084;2022-07-05T07:01:46;4.20;;;1.70;;
66485;SDS011;53303;47.476;8.084;2022-07-05T07:04:11;4.72;;;1.40;;
66485;SDS011;53303;47.476;8.084;2022-07-05T07:06:37;2.97;;;1.70;;
66485;SDS011;53303;47.476;8.084;2022-07-05T07:09:02;4.10;;;1.27;;
66485;SDS011;53303;47.476;8.084;2022-07-05T07:11:48;4.25;;;1.60;;
66485;SDS011;53303;47.476;8.084;2022-07-05T07:14:14;3.55;;;1.23;;
66485;SDS011;53303;47.476;8.084;2022-07-05T07:16:41;2.20;;;1.30;;
66485;SDS011;53303;47.476;8.084;2022-07-05T07:19:06;3.70;;;1.60;;
66485;SDS011;53303;47.476;8.084;2022-07-05T07:21:32;2.72;;;1.60;;
66485;SDS011;53303;47.476;8.084;2022-07-05T07:23:57;4.03;;;1.65;;
66485;SDS011;53303;47.476;8.084;2022-07-05T07:26:23;3.67;;;1.80;;
66485;SDS011;53303;47.476;8.084;2022-07-05T07:28:48;3.20;;;1.75;;
66485;SDS011;53303;47.476;8.084;2022-07-05T07:31:13;3.13;;;1.60;;
66485;SDS011;53303;47.476;8.084;2022-07-05T07:33:39;2.50;;;1.40;;
66485;SDS011;53303;47.476;8.084;2022-07-05T07:36:04;3.85;;;1.67;;
66485;SDS011;53303;47.476;8.084;2022-07-05T07:38:30;3.15;;;1.60;;
66485;SDS011;53303;47.476;8.084;2022-07-05T07:40:55;3.13;;;1.50;;
66485;SDS011;53303;47.476;8.084;2022-07-05T07:43:21;3.78;;;1.70;;
66485;SDS011;53303;47.476;8.084;2022-07-05T07:45:49;3.75;;;1.63;;
66485;SDS011;53303;47.476;8.084;2022-07-05T07:48:14;3.28;;;1.70;;
66485;SDS011;53303;47.476;8.084;2022-07-05T07:50:40;1.75;;;1.42;;
66485;SDS011;53303;47.476;8.084;2022-07-05T07:53:05;4.80;;;1.50;;
66485;SDS011;53303;47.476;8.084;2022-07-05T07:55:31;3.92;;;1.80;;
66485;SDS011;53303;47.476;8.084;2022-07-05T07:57:58;2.03;;;1.30;;
66485;SDS011;53303;47.476;8.084;2022-07-05T08:00:28;2.45;;;1.35;;
66485;SDS011;53303;47.476;8.084;2022-07-05T08:02:54;4.28;;;1.30;;
66485;SDS011;53303;47.476;8.084;2022-07-05T08:05:19;3.45;;;1.52;;
66485;SDS011;53303;47.476;8.084;2022-07-05T08:07:45;3.25;;;1.60;;
66485;SDS011;53303;47.476;8.084;2022-07-05T08:10:10;3.47;;;1.42;;
66485;SDS011;53303;47.476;8.084;2022-07-05T08:12:36;4.53;;;1.55;;
66485;SDS011;53303;47.476;8.084;2022-07-05T08:15:01;4.55;;;1.70;;
66485;SDS011;53303;47.476;8.084;2022-07-05T08:17:27;3.45;;;1.80;;
66485;SDS011;53303;47.476;8.084;2022-07-05T08:19:53;3.13;;;1.48;;
66485;SDS011;53303;47.476;8.084;2022-07-05T08:22:36;3.05;;;1.63;;
66485;SDS011;53303;47.476;8.084;2022-07-05T08:25:02;3.10;;;1.45;;
66485;SDS011;53303;47.476;8.084;2022-07-05T08:27:28;3.28;;;1.40;;
66485;SDS011;53303;47.476;8.084;2022-07-05T08:29:53;3.50;;;1.40;;
66485;SDS011;53303;47.476;8.084;2022-07-05T08:32:19;2.47;;;1.40;;
66485;SDS011;53303;47.476;8.084;2022-07-05T08:34:44;3.78;;;1.73;;
66485;SDS011;53303;47.476;8.084;2022-07-05T08:37:09;2.85;;;1.63;;
66485;SDS011;53303;47.476;8.084;2022-07-05T08:39:36;3.28;;;1.75;;
66485;SDS011;53303;47.476;8.084;2022-07-05T08:42:01;4.97;;;1.70;;
66485;SDS011;53303;47.476;8.084;2022-07-05T08:44:28;2.67;;;1.77;;
66485;SDS011;53303;47.476;8.084;2022-07-05T08:46:55;3.33;;;1.65;;
66485;SDS011;53303;47.476;8.084;2022-07-05T08:49:22;2.50;;;1.60;;
66485;SDS011;53303;47.476;8.084;2022-07-05T08:51:53;3.65;;;1.92;;
66485;SDS011;53303;47.476;8.084;2022-07-05T08:54:19;6.85;;;2.00;;
66485;SDS011;53303;47.476;8.084;2022-07-05T08:56:46;3.30;;;1.65;;
66485;SDS011;53303;47.476;8.084;2022-07-05T08:59:12;2.67;;;1.17;;
66485;SDS011;53303;47.476;8.084;2022-07-05T09:01:38;3.00;;;1.60;;
66485;SDS011;53303;47.476;8.084;2022-07-05T09:04:07;2.00;;;1.33;;
66485;SDS011;53303;47.476;8.084;2022-07-05T09:06:35;2.25;;;1.42;;
66485;SDS011;53303;47.476;8.084;2022-07-05T09:09:03;2.30;;;1.35;;
66485;SDS011;53303;47.476;8.084;2022-07-05T09:11:39;2.35;;;1.05;;
66485;SDS011;53303;47.476;8.084;2022-07-05T09:14:23;3.20;;;1.33;;
66485;SDS011;53303;47.476;8.084;2022-07-05T09:16:50;2.35;;;1.20;;
66485;SDS011;53303;47.476;8.084;2022-07-05T09:19:16;3.17;;;0.90;;
66485;SDS011;53303;47.476;8.084;2022-07-05T09:21:42;4.28;;;1.40;;
66485;SDS011;53303;47.476;8.084;2022-07-05T09:24:08;3.45;;;1.35;;
66485;SDS011;53303;47.476;8.084;2022-07-05T09:26:35;3.60;;;1.23;;
66485;SDS011;53303;47.476;8.084;2022-07-05T09:29:04;2.40;;;1.00;;
66485;SDS011;53303;47.476;8.084;2022-07-05T09:31:35;2.83;;;1.10;;
66485;SDS011;53303;47.476;8.084;2022-07-05T09:39:13;3.05;;;1.20;;
66485;SDS011;53303;47.476;8.084;2022-07-05T09:41:39;2.75;;;1.40;;
66485;SDS011;53303;47.476;8.084;2022-07-05T09:44:04;3.63;;;1.40;;
66485;SDS011;53303;47.476;8.084;2022-07-05T09:46:30;3.03;;;1.38;;
66485;SDS011;53303;47.476;8.084;2022-07-05T09:48:57;2.97;;;1.67;;
66485;SDS011;53303;47.476;8.084;2022-07-05T09:51:25;4.50;;;1.65;;
66485;SDS011;53303;47.476;8.084;2022-07-05T09:53:51;3.22;;;1.20;;
66485;SDS011;53303;47.476;8.084;2022-07-05T09:56:18;3.40;;;1.10;;
66485;SDS011;53303;47.476;8.084;2022-07-05T09:58:44;2.42;;;1.40;;
66485;SDS011;53303;47.476;8.084;2022-07-05T10:01:23;3.53;;;1.85;;
66485;SDS011;53303;47.476;8.084;2022-07-05T10:03:52;4.53;;;1.75;;
66485;SDS011;53303;47.476;8.084;2022-07-05T10:06:22;2.47;;;1.40;;
66485;SDS011;53303;47.476;8.084;2022-07-05T10:08:49;2.40;;;1.45;;
66485;SDS011;53303;47.476;8.084;2022-07-05T10:11:19;4.05;;;1.50;;
66485;SDS011;53303;47.476;8.084;2022-07-05T10:13:50;2.20;;;1.10;;
66485;SDS011;53303;47.476;8.084;2022-07-05T10:16:20;3.63;;;1.60;;
66485;SDS011;53303;47.476;8.084;2022-07-05T10:18:50;3.13;;;1.40;;
66485;SDS011;53303;47.476;8.084;2022-07-05T10:21:18;3.65;;;1.80;;
66485;SDS011;53303;47.476;8.084;2022-07-05T10:23:45;2.85;;;1.33;;
66485;SDS011;53303;47.476;8.084;2022-07-05T10:26:16;2.60;;;1.40;;
66485;SDS011;53303;47.476;8.084;2022-07-05T10:28:47;3.25;;;1.70;;
66485;SDS011;53303;47.476;8.084;2022-07-05T10:31:19;3.15;;;1.80;;
66485;SDS011;53303;47.476;8.084;2022-07-05T10:33:44;2.80;;;1.58;;
66485;SDS011;53303;47.476;8.084;2022-07-05T10:36:10;2.72;;;1.60;;
66485;SDS011;53303;47.476;8.084;2022-07-05T10:38:42;2.85;;;1.30;;
66485;SDS011;53303;47.476;8.084;2022-07-05T10:41:10;4.38;;;1.42;;
66485;SDS011;53303;47.476;8.084;2022-07-05T10:43:43;3.92;;;1.80;;
66485;SDS011;53303;47.476;8.084;2022-07-05T10:46:09;3.33;;;1.35;;
66485;SDS011;53303;47.476;8.084;2022-07-05T10:48:34;4.22;;;1.80;;
66485;SDS011;53303;47.476;8.084;2022-07-05T10:51:01;3.42;;;1.40;;
66485;SDS011;53303;47.476;8.084;2022-07-05T11:03:46;3.45;;;1.80;;
66485;SDS011;53303;47.476;8.084;2022-07-05T11:06:22;3.25;;;1.67;;
66485;SDS011;53303;47.476;8.084;2022-07-05T11:13:51;2.38;;;1.55;;
66485;SDS011;53303;47.476;8.084;2022-07-05T11:16:27;3.08;;;1.63;;
66485;SDS011;53303;47.476;8.084;2022-07-05T11:19:09;3.67;;;1.60;;
66485;SDS011;53303;47.476;8.084;2022-07-05T11:21:36;2.30;;;1.20;;
66485;SDS011;53303;47.476;8.084;2022-07-05T11:26:44;4.10;;;2.00;;
66485;SDS011;53303;47.476;8.084;2022-07-05T11:32:09;2.28;;;1.30;;
66485;SDS011;53303;47.476;8.084;2022-07-05T11:34:57;3.10;;;1.42;;
66485;SDS011;53303;47.476;8.084;2022-07-05T11:38:12;2.78;;;1.55;;
66485;SDS011;53303;47.476;8.084;2022-07-05T11:40:35;2.67;;;1.60;;
66485;SDS011;53303;47.476;8.084;2022-07-05T11:43:03;3.25;;;1.70;;
66485;SDS011;53303;47.476;8.084;2022-07-05T11:45:29;2.55;;;1.30;;
66485;SDS011;53303;47.476;8.084;2022-07-05T11:47:56;2.67;;;1.55;;
66485;SDS011;53303;47.476;8.084;2022-07-05T11:50:26;1.95;;;1.25;;
66485;SDS011;53303;47.476;8.084;2022-07-05T11:52:53;2.83;;;1.60;;
66485;SDS011;53303;47.476;8.084;2022-07-05T11:55:19;3.35;;;1.77;;
66485;SDS011;53303;47.476;8.084;2022-07-05T11:57:50;3.97;;;1.80;;
66485;SDS011;53303;47.476;8.084;2022-07-05T12:00:29;3.30;;;1.40;;
66485;SDS011;53303;47.476;8.084;2022-07-05T12:02:58;3.53;;;1.20;;
66485;SDS011;53303;47.476;8.084;2022-07-05T12:05:28;2.60;;;1.48;;
66485;SDS011;53303;47.476;8.084;2022-07-05T12:07:57;2.35;;;1.17;;
66485;SDS011;53303;47.476;8.084;2022-07-05T12:10:23;3.65;;;1.48;;
66485;SDS011;53303;47.476;8.084;2022-07-05T12:13:07;2.95;;;1.10;;
66485;SDS011;53303;47.476;8.084;2022-07-05T12:15:33;2.88;;;1.23;;
66485;SDS011;53303;47.476;8.084;2022-07-05T12:18:00;4.78;;;1.60;;
66485;SDS011;53303;47.476;8.084;2022-07-05T12:20:28;3.33;;;1.40;;
66485;SDS011;53303;47.476;8.084;2022-07-05T12:22:55;4.10;;;1.20;;
66485;SDS011;53303;47.476;8.084;2022-07-05T12:25:21;3.03;;;1.17;;
66485;SDS011;53303;47.476;8.084;2022-07-05T12:27:49;2.35;;;1.40;;
66485;SDS011;53303;47.476;8.084;2022-07-05T12:30:16;3.33;;;1.60;;
66485;SDS011;53303;47.476;8.084;2022-07-05T12:38:05;1.67;;;1.23;;
66485;SDS011;53303;47.476;8.084;2022-07-05T12:40:33;2.10;;;1.13;;
66485;SDS011;53303;47.476;8.084;2022-07-05T12:43:00;2.05;;;1.08;;
66485;SDS011;53303;47.476;8.084;2022-07-05T12:45:30;3.95;;;1.50;;
66485;SDS011;53303;47.476;8.084;2022-07-05T12:47:56;3.55;;;1.75;;
66485;SDS011;53303;47.476;8.084;2022-07-05T12:50:24;4.10;;;1.60;;
66485;SDS011;53303;47.476;8.084;2022-07-05T12:55:20;2.53;;;1.40;;
66485;SDS011;53303;47.476;8.084;2022-07-05T12:58:04;2.92;;;1.48;;
66485;SDS011;53303;47.476;8.084;2022-07-05T13:00:30;2.88;;;1.33;;
66485;SDS011;53303;47.476;8.084;2022-07-05T13:02:56;3.25;;;1.52;;
66485;SDS011;53303;47.476;8.084;2022-07-05T13:05:22;2.63;;;1.48;;
66485;SDS011;53303;47.476;8.084;2022-07-05T13:07:49;2.63;;;1.40;;
66485;SDS011;53303;47.476;8.084;2022-07-05T13:10:26;2.53;;;1.30;;
66485;SDS011;53303;47.476;8.084;2022-07-05T13:12:56;2.10;;;1.27;;
66485;SDS011;53303;47.476;8.084;2022-07-05T13:15:22;2.00;;;1.10;;
66485;SDS011;53303;47.476;8.084;2022-07-05T13:17:49;2.30;;;1.30;;
66485;SDS011;53303;47.476;8.084;2022-07-05T13:20:15;2.25;;;1.40;;
66485;SDS011;53303;47.476;8.084;2022-07-05T13:22:43;2.15;;;1.40;;
66485;SDS011;53303;47.476;8.084;2022-07-05T13:25:09;4.15;;;1.58;;
66485;SDS011;53303;47.476;8.084;2022-07-05T13:27:37;1.58;;;1.00;;
66485;SDS011;53303;47.476;8.084;2022-07-05T13:30:03;3.22;;;1.75;;
66485;SDS011;53303;47.476;8.084;2022-07-05T13:32:29;3.38;;;1.40;;
66485;SDS011;53303;47.476;8.084;2022-07-05T13:34:56;2.47;;;1.52;;
66485;SDS011;53303;47.476;8.084;2022-07-05T13:37:22;2.33;;;1.40;;
66485;SDS011;53303;47.476;8.084;2022-07-05T13:39:48;3.30;;;1.80;;
66485;SDS011;53303;47.476;8.084;2022-07-05T13:42:13;2.28;;;1.48;;
66485;SDS011;53303;47.476;8.084;2022-07-05T13:44:41;2.15;;;1.40;;
66485;SDS011;53303;47.476;8.084;2022-07-05T13:47:07;2.63;;;1.40;;
66485;SDS011;53303;47.476;8.084;2022-07-05T13:49:32;2.38;;;1.45;;
66485;SDS011;53303;47.476;8.084;2022-07-05T13:52:00;2.85;;;1.27;;
66485;SDS011;53303;47.476;8.084;2022-07-05T13:54:30;2.88;;;1.80;;
66485;SDS011;53303;47.476;8.084;2022-07-05T13:56:55;2.47;;;1.30;;
66485;SDS011;53303;47.476;8.084;2022-07-05T13:59:21;2.65;;;1.50;;
66485;SDS011;53303;47.476;8.084;2022-07-05T14:01:47;3.05;;;1.52;;
66485;SDS011;53303;47.476;8.084;2022-07-05T14:04:12;3.22;;;1.55;;
66485;SDS011;53303;47.476;8.084;2022-07-05T14:06:40;3.25;;;1.30;;
66485;SDS011;53303;47.476;8.084;2022-07-05T14:09:06;4.68;;;1.50;;
66485;SDS011;53303;47.476;8.084;2022-07-05T14:11:33;2.28;;;1.40;;
66485;SDS011;53303;47.476;8.084;2022-07-05T14:13:58;3.05;;;1.20;;
66485;SDS011;53303;47.476;8.084;2022-07-05T14:16:24;2.83;;;1.17;;
66485;SDS011;53303;47.476;8.084;2022-07-05T14:18:50;2.42;;;1.45;;
66485;SDS011;53303;47.476;8.084;2022-07-05T14:21:17;3.95;;;1.58;;
66485;SDS011;53303;47.476;8.084;2022-07-05T14:23:46;3.78;;;1.67;;
66485;SDS011;53303;47.476;8.084;2022-07-05T14:26:16;2.63;;;1.50;;
66485;SDS011;53303;47.476;8.084;2022-07-05T14:28:42;2.45;;;1.52;;
66485;SDS011;53303;47.476;8.084;2022-07-05T14:31:10;3.28;;;1.60;;
66485;SDS011;53303;47.476;8.084;2022-07-05T14:33:37;3.00;;;1.50;;
66485;SDS011;53303;47.476;8.084;2022-07-05T14:36:04;2.50;;;1.50;;
66485;SDS011;53303;47.476;8.084;2022-07-05T14:38:30;2.63;;;1.40;;
66485;SDS011;53303;47.476;8.084;2022-07-05T14:41:00;2.83;;;1.42;;
66485;SDS011;53303;47.476;8.084;2022-07-05T14:43:26;3.38;;;1.58;;
66485;SDS011;53303;47.476;8.084;2022-07-05T14:45:51;1.92;;;1.25;;
66485;SDS011;53303;47.476;8.084;2022-07-05T14:48:17;2.53;;;1.40;;
66485;SDS011;53303;47.476;8.084;2022-07-05T14:50:42;2.08;;;1.27;;
66485;SDS011;53303;47.476;8.084;2022-07-05T14:53:12;4.82;;;1.65;;
66485;SDS011;53303;47.476;8.084;2022-07-05T14:55:38;3.88;;;1.58;;
66485;SDS011;53303;47.476;8.084;2022-07-05T14:58:06;3.40;;;1.67;;
66485;SDS011;53303;47.476;8.084;2022-07-05T15:00:31;1.83;;;1.08;;
66485;SDS011;53303;47.476;8.084;2022-07-05T15:02:57;3.30;;;1.52;;
66485;SDS011;53303;47.476;8.084;2022-07-05T15:05:25;4.20;;;1.10;;
66485;SDS011;53303;47.476;8.084;2022-07-05T15:07:50;3.75;;;1.90;;
66485;SDS011;53303;47.476;8.084;2022-07-05T15:10:16;2.97;;;1.30;;
66485;SDS011;53303;47.476;8.084;2022-07-05T15:12:41;4.57;;;1.42;;
66485;SDS011;53303;47.476;8.084;2022-07-05T15:15:07;5.50;;;1.58;;
66485;SDS011;53303;47.476;8.084;2022-07-05T15:17:33;2.50;;;1.30;;
66485;SDS011;53303;47.476;8.084;2022-07-05T15:19:58;2.38;;;1.48;;
66485;SDS011;53303;47.476;8.084;2022-07-05T15:22:24;3.63;;;1.48;;